createdAt,value
2023-05-06T00:01:17.942Z,98837.72
2023-05-06T00:03:44.806Z,98833.19
2023-05-06T00:06:12.030Z,98834.84
2023-05-06T00:08:38.751Z,98838.41
2023-05-06T00:11:05.814Z,98839.97
2023-05-06T00:13:32.506Z,98833.22
2023-05-06T00:15:59.567Z,98835.22
2023-05-06T00:18:26.435Z,98838.34
2023-05-06T00:20:53.430Z,98838.88
2023-05-06T00:23:20.119Z,98827.47
2023-05-06T00:25:47.097Z,98826.97
2023-05-06T00:28:13.846Z,98831.34
2023-05-06T00:30:40.930Z,98835.09
2023-05-06T00:33:07.800Z,98833.53
2023-05-06T00:35:35.078Z,98834.75
2023-05-06T00:38:13.320Z,98833.44
2023-05-06T00:40:40.595Z,98832.38
2023-05-06T00:43:07.351Z,98831.81
2023-05-06T00:45:34.496Z,98826.84
2023-05-06T00:48:01.272Z,98829.56
2023-05-06T00:50:28.453Z,98835.31
2023-05-06T00:52:56.503Z,98833.28
2023-05-06T00:55:23.547Z,98833.75
2023-05-06T00:57:51.900Z,98833.03
2023-05-06T01:00:19.603Z,98828.22
2023-05-06T01:02:49.603Z,98835.06
2023-05-06T01:05:17.733Z,98829.09
2023-05-06T01:07:50.734Z,98823.72
2023-05-06T01:10:23.532Z,98819.56
2023-05-06T01:13:07.688Z,98827.88
2023-05-06T01:15:34.789Z,98831.72
2023-05-06T01:18:02.352Z,98832.31
2023-05-06T01:20:30.783Z,98837.22
2023-05-06T01:22:57.495Z,98828.06
2023-05-06T01:25:24.576Z,98820.75
2023-05-06T01:27:51.295Z,98825.34
2023-05-06T01:30:18.685Z,98827.47
2023-05-06T01:33:00.708Z,98826.09
2023-05-06T01:35:38.084Z,98819.31
2023-05-06T01:38:10.702Z,98816.06
2023-05-06T01:40:37.786Z,98811.03
2023-05-06T01:43:05.801Z,98813.38
2023-05-06T01:45:34.118Z,98805.69
2023-05-06T01:48:00.899Z,98807.69
2023-05-06T01:50:28.045Z,98811.31
2023-05-06T01:53:02.289Z,98806.72
2023-05-06T01:55:29.535Z,98808.47
2023-05-06T01:57:59.112Z,98801.75
2023-05-06T02:00:26.582Z,98799.66
2023-05-06T02:02:53.561Z,98801.25
2023-05-06T02:05:20.769Z,98793.97
2023-05-06T02:07:47.527Z,98802.72
2023-05-06T02:10:14.653Z,98791.13
2023-05-06T02:12:41.374Z,98802.16
2023-05-06T02:15:09.234Z,98798.88
2023-05-06T02:17:37.428Z,98800.56
2023-05-06T02:20:06.041Z,98793.75
2023-05-06T02:22:32.917Z,98792.16
2023-05-06T02:24:59.929Z,98800.31
2023-05-06T02:27:26.696Z,98797.66
2023-05-06T02:29:54.154Z,98799.78
2023-05-06T02:32:21.094Z,98799.34
2023-05-06T02:34:48.223Z,98803.34
2023-05-06T02:37:14.960Z,98806.66
2023-05-06T02:39:41.925Z,98805.50
2023-05-06T02:42:08.637Z,98800.53
2023-05-06T02:44:35.722Z,98804.69
2023-05-06T02:47:02.480Z,98803.69
2023-05-06T02:49:29.722Z,98799.28
2023-05-06T02:51:56.530Z,98799.13
2023-05-06T02:54:23.562Z,98794.72
2023-05-06T02:56:50.288Z,98791.44
2023-05-06T02:59:17.321Z,98787.16
2023-05-06T03:01:44.066Z,98790.28
2023-05-06T03:04:11.144Z,98784.72
2023-05-06T03:06:37.896Z,98786.44
2023-05-06T03:09:05.139Z,98778.16
2023-05-06T03:11:32.633Z,98777.19
2023-05-06T03:13:59.679Z,98788.88
2023-05-06T03:16:26.559Z,98786.03
2023-05-06T03:18:53.591Z,98787.34
2023-05-06T03:21:20.326Z,98788.75
2023-05-06T03:23:47.370Z,98783.03
2023-05-06T03:26:14.046Z,98776.91
2023-05-06T03:28:42.999Z,98785.34
2023-05-06T03:31:09.795Z,98788.34
2023-05-06T03:33:37.003Z,98783.91
2023-05-06T03:36:04.492Z,98782.47
2023-05-06T03:38:31.499Z,98787.63
2023-05-06T03:40:58.220Z,98783.34
2023-05-06T03:43:25.353Z,98785.06
2023-05-06T03:45:52.156Z,98787.06
2023-05-06T03:48:19.189Z,98802.19
2023-05-06T03:50:45.893Z,98801.75
2023-05-06T03:53:13.234Z,98809.47
2023-05-06T03:55:39.935Z,98802.03
2023-05-06T03:58:07.347Z,98804.91
2023-05-06T04:00:34.081Z,98794.75
2023-05-06T04:03:01.201Z,98786.91
2023-05-06T04:05:27.941Z,98789.50
2023-05-06T04:07:55.414Z,98802.31
2023-05-06T04:10:22.183Z,98795.91
2023-05-06T04:12:49.204Z,98800.50
2023-05-06T04:15:16.034Z,98800.91
2023-05-06T04:17:43.088Z,98787.50
2023-05-06T04:20:11.497Z,98790.06
2023-05-06T04:22:38.805Z,98783.94
2023-05-06T04:25:06.716Z,98781.78
2023-05-06T04:27:33.801Z,98781.22
2023-05-06T04:30:00.870Z,98782.78
2023-05-06T04:32:28.190Z,98776.22
2023-05-06T04:34:55.896Z,98770.66
2023-05-06T04:37:23.417Z,98771.50
2023-05-06T04:39:50.128Z,98774.34
2023-05-06T04:42:17.474Z,98772.38
2023-05-06T04:44:44.170Z,98764.81
2023-05-06T04:47:11.333Z,98768.94
2023-05-06T04:49:38.019Z,98762.25
2023-05-06T04:52:05.059Z,98756.38
2023-05-06T04:54:31.757Z,98755.50
2023-05-06T04:56:58.776Z,98748.81
2023-05-06T04:59:25.539Z,98749.53
2023-05-06T05:01:52.548Z,98736.97
2023-05-06T05:04:19.269Z,98739.50
2023-05-06T05:06:46.294Z,98739.09
2023-05-06T05:09:13.206Z,98731.66
2023-05-06T05:11:40.331Z,98733.50
2023-05-06T05:14:07.035Z,98732.66
2023-05-06T05:16:34.092Z,98736.50
2023-05-06T05:19:03.326Z,98745.19
2023-05-06T05:21:30.788Z,98746.75
2023-05-06T05:23:57.509Z,98739.19
2023-05-06T05:26:24.713Z,98743.63
2023-05-06T05:28:51.475Z,98748.19
2023-05-06T05:31:18.486Z,98748.88
2023-05-06T05:33:45.315Z,98744.47
2023-05-06T05:36:15.255Z,98750.88
2023-05-06T05:38:41.976Z,98749.03
2023-05-06T05:41:09.073Z,98740.72
2023-05-06T05:43:35.875Z,98748.03
2023-05-06T05:46:03.117Z,98746.53
2023-05-06T05:48:32.719Z,98742.09
2023-05-06T05:51:02.540Z,98743.50
2023-05-06T05:53:29.286Z,98733.63
2023-05-06T05:55:56.309Z,98727.34
2023-05-06T05:58:23.249Z,98723.50
2023-05-06T06:00:50.358Z,98726.94
2023-05-06T06:03:18.181Z,98716.75
2023-05-06T06:05:45.264Z,98716.69
2023-05-06T06:08:11.973Z,98713.66
2023-05-06T06:10:39.019Z,98710.38
2023-05-06T06:13:06.172Z,98704.81
2023-05-06T06:15:33.229Z,98707.06
2023-05-06T06:17:59.976Z,98701.88
2023-05-06T06:20:27.106Z,98697.22
2023-05-06T06:22:53.840Z,98694.44
2023-05-06T06:25:21.706Z,98694.84
2023-05-06T06:27:48.517Z,98690.41
2023-05-06T06:30:15.777Z,98690.78
2023-05-06T06:32:50.373Z,98692.44
2023-05-06T06:35:17.690Z,98696.13
2023-05-06T06:37:44.490Z,98692.09
2023-05-06T06:40:12.126Z,98688.66
2023-05-06T06:42:38.852Z,98690.38
2023-05-06T06:45:08.069Z,98688.72
2023-05-06T06:47:35.462Z,98680.56
2023-05-06T06:50:02.926Z,98683.28
2023-05-06T06:52:29.950Z,98675.81
2023-05-06T06:54:56.983Z,98675.88
2023-05-06T06:57:23.711Z,98673.00
2023-05-06T06:59:52.523Z,98672.56
2023-05-06T07:02:20.223Z,98670.66
2023-05-06T07:04:47.276Z,98674.34
2023-05-06T07:07:14.159Z,98675.34
2023-05-06T07:09:41.268Z,98670.75
2023-05-06T07:12:08.120Z,98664.34
2023-05-06T07:14:35.112Z,98667.06
2023-05-06T07:17:01.954Z,98657.56
2023-05-06T07:19:29.401Z,98658.75
2023-05-06T07:21:56.939Z,98660.44
2023-05-06T07:24:23.975Z,98656.56
2023-05-06T07:26:50.731Z,98651.97
2023-05-06T07:29:17.730Z,98656.78
2023-05-06T07:31:44.483Z,98657.50
2023-05-06T07:34:11.784Z,98651.06
2023-05-06T07:36:43.344Z,98654.63
2023-05-06T07:39:10.958Z,98656.72
2023-05-06T07:41:37.683Z,98660.25
2023-05-06T07:44:05.024Z,98659.59
2023-05-06T07:46:32.047Z,98656.94
2023-05-06T07:48:59.185Z,98650.44
2023-05-06T07:51:26.851Z,98652.47
2023-05-06T07:53:53.918Z,98653.81
2023-05-06T07:56:20.745Z,98646.84
2023-05-06T07:58:49.344Z,98648.09
2023-05-06T08:01:16.419Z,98647.94
2023-05-06T08:03:44.067Z,98647.53
2023-05-06T08:06:10.888Z,98646.53
2023-05-06T08:08:37.914Z,98645.84
2023-05-06T08:11:04.927Z,98645.28
2023-05-06T08:13:33.517Z,98641.03
2023-05-06T08:16:02.382Z,98642.06
2023-05-06T08:18:30.024Z,98639.84
2023-05-06T08:20:56.912Z,98640.69
2023-05-06T08:23:24.061Z,98641.59
2023-05-06T08:25:50.836Z,98651.13
2023-05-06T08:28:17.926Z,98653.53
2023-05-06T08:30:47.669Z,98651.47
2023-05-06T08:33:14.730Z,98664.94
2023-05-06T08:35:41.416Z,98669.03
2023-05-06T08:38:08.431Z,98671.94
2023-05-06T08:40:35.201Z,98680.13
2023-05-06T08:43:02.658Z,98682.50
2023-05-06T08:45:29.732Z,98677.91
2023-05-06T08:47:56.873Z,98681.66
2023-05-06T08:50:23.829Z,98680.81
2023-05-06T08:52:51.129Z,98685.22
2023-05-06T08:55:17.834Z,98684.53
2023-05-06T08:57:44.908Z,98677.75
2023-05-06T09:00:12.095Z,98682.00
2023-05-06T09:02:42.703Z,98684.56
2023-05-06T09:05:10.174Z,98686.78
2023-05-06T09:07:37.882Z,98696.31
2023-05-06T09:10:14.245Z,98688.28
2023-05-06T09:12:41.641Z,98693.06
2023-05-06T09:15:09.631Z,98694.94
2023-05-06T09:17:36.967Z,98692.22
2023-05-06T09:20:06.350Z,98697.81
2023-05-06T09:22:33.381Z,98693.38
2023-05-06T09:25:00.252Z,98698.47
2023-05-06T09:27:28.712Z,98699.84
2023-05-06T09:30:02.891Z,98697.75
2023-05-06T09:32:30.070Z,98699.09
2023-05-06T09:34:56.927Z,98702.16
2023-05-06T09:37:26.248Z,98690.56
2023-05-06T09:39:57.360Z,98689.00
2023-05-06T09:42:25.458Z,98676.41
2023-05-06T09:45:04.820Z,98682.81
2023-05-06T09:47:35.415Z,98674.94
2023-05-06T09:50:02.949Z,98677.31
2023-05-06T09:52:30.266Z,98672.03
2023-05-06T09:54:57.136Z,98672.50
2023-05-06T09:57:24.350Z,98672.66
2023-05-06T09:59:52.295Z,98677.09
2023-05-06T10:02:20.050Z,98673.00
2023-05-06T10:04:47.182Z,98674.16
2023-05-06T10:07:14.274Z,98669.91
2023-05-06T10:09:41.496Z,98664.06
2023-05-06T10:12:08.807Z,98664.25
2023-05-06T10:14:38.538Z,98657.09
2023-05-06T10:17:07.794Z,98660.13
2023-05-06T10:19:35.041Z,98654.16
2023-05-06T10:22:34.375Z,98644.78
2023-05-06T10:25:22.228Z,98651.91
2023-05-06T10:27:49.268Z,98655.50
2023-05-06T10:30:19.397Z,98639.34
2023-05-06T10:32:46.508Z,98638.97
2023-05-06T10:35:26.911Z,98642.53
2023-05-06T10:37:53.947Z,98644.41
2023-05-06T10:40:20.709Z,98640.81
2023-05-06T10:42:48.036Z,98647.28
2023-05-06T10:45:16.633Z,98641.13
2023-05-06T10:47:52.913Z,98637.56
2023-05-06T10:50:26.875Z,98638.75
2023-05-06T10:52:57.822Z,98643.47
2023-05-06T10:55:28.276Z,98646.19
2023-05-06T10:58:06.987Z,98644.50
2023-05-06T11:00:34.506Z,98637.34
2023-05-06T11:03:02.910Z,98643.78
2023-05-06T11:05:29.826Z,98641.94
2023-05-06T11:08:09.119Z,98638.69
2023-05-06T11:10:36.382Z,98639.38
2023-05-06T11:13:20.004Z,98632.53
2023-05-06T11:15:47.364Z,98634.72
2023-05-06T11:18:27.626Z,98639.78
2023-05-06T11:21:03.649Z,98633.97
2023-05-06T11:23:43.416Z,98640.59
2023-05-06T11:26:10.415Z,98640.09
2023-05-06T11:28:37.888Z,98648.97
2023-05-06T11:31:04.750Z,98667.66
2023-05-06T11:33:36.048Z,98670.56
2023-05-06T11:36:03.889Z,98663.56
2023-05-06T11:38:52.838Z,98662.00
2023-05-06T11:41:21.796Z,98666.44
2023-05-06T11:43:52.103Z,98654.03
2023-05-06T11:46:19.398Z,98662.34
2023-05-06T11:48:46.704Z,98665.22
2023-05-06T11:51:13.505Z,98668.94
2023-05-06T11:53:40.631Z,98673.69
2023-05-06T11:56:07.704Z,98681.00
2023-05-06T11:58:34.743Z,98685.41
2023-05-06T12:01:02.693Z,98690.69
2023-05-06T12:03:31.495Z,98681.84
2023-05-06T12:05:58.499Z,98686.09
2023-05-06T12:08:29.978Z,98692.09
2023-05-06T12:10:59.414Z,98694.97
2023-05-06T12:13:27.124Z,98700.25
2023-05-06T12:15:58.672Z,98702.78
2023-05-06T12:18:26.072Z,98707.22
2023-05-06T12:20:56.386Z,98708.63
2023-05-06T12:23:23.600Z,98716.63
2023-05-06T12:26:06.624Z,98717.50
2023-05-06T12:28:35.993Z,98713.91
2023-05-06T12:31:38.467Z,98710.63
2023-05-06T12:34:05.905Z,98718.19
2023-05-06T12:36:33.124Z,98718.03
2023-05-06T12:39:01.214Z,98709.03
2023-05-06T12:41:41.247Z,98708.16
2023-05-06T12:44:31.216Z,98702.56
2023-05-06T12:46:59.073Z,98705.28
2023-05-06T12:49:26.120Z,98712.44
2023-05-06T12:52:11.378Z,98708.53
2023-05-06T12:54:38.615Z,98697.19
2023-05-06T12:57:05.739Z,98704.34
2023-05-06T12:59:33.137Z,98701.31
2023-05-06T13:02:00.019Z,98701.84
2023-05-06T13:04:27.427Z,98696.25
2023-05-06T13:06:54.361Z,98699.34
2023-05-06T13:09:21.743Z,98709.94
2023-05-06T13:11:48.515Z,98697.84
2023-05-06T13:14:16.380Z,98709.97
2023-05-06T13:16:43.917Z,98703.19
2023-05-06T13:19:21.257Z,98707.59
2023-05-06T13:21:51.808Z,98703.94
2023-05-06T13:24:19.174Z,98704.16
2023-05-06T13:26:46.129Z,98701.81
2023-05-06T13:29:13.185Z,98701.03
2023-05-06T13:31:40.256Z,98694.53
2023-05-06T13:34:07.381Z,98695.94
2023-05-06T13:36:34.123Z,98699.75
2023-05-06T13:39:01.288Z,98709.13
2023-05-06T13:41:28.070Z,98699.16
2023-05-06T13:43:55.145Z,98699.00
2023-05-06T13:46:23.166Z,98699.50
2023-05-06T13:48:50.245Z,98703.44
2023-05-06T13:51:17.377Z,98697.03
2023-05-06T13:53:44.473Z,98692.44
2023-05-06T13:56:11.242Z,98688.72
2023-05-06T13:58:38.249Z,98687.91
2023-05-06T14:01:05.098Z,98687.91
2023-05-06T14:03:32.195Z,98701.41
2023-05-06T14:05:59.019Z,98691.69
2023-05-06T14:08:26.185Z,98686.47
2023-05-06T14:10:52.883Z,98684.44
2023-05-06T14:13:19.971Z,98688.50
2023-05-06T14:15:46.858Z,98689.03
2023-05-06T14:18:13.999Z,98693.81
2023-05-06T14:20:41.988Z,98703.88
2023-05-06T14:23:09.050Z,98690.41
2023-05-06T14:25:35.900Z,98691.75
2023-05-06T14:28:03.055Z,98686.97
2023-05-06T14:30:31.115Z,98694.81
2023-05-06T14:32:58.845Z,98687.34
2023-05-06T14:35:25.711Z,98683.88
2023-05-06T14:37:53.174Z,98676.91
2023-05-06T14:40:20.018Z,98683.03
2023-05-06T14:42:47.112Z,98676.88
2023-05-06T14:45:14.053Z,98680.81
2023-05-06T14:47:41.272Z,98686.59
2023-05-06T14:50:09.393Z,98683.19
2023-05-06T14:52:37.671Z,98683.84
2023-05-06T14:55:08.740Z,98686.41
2023-05-06T14:57:36.008Z,98688.56
2023-05-06T15:00:04.924Z,98689.94
2023-05-06T15:02:32.540Z,98688.38
2023-05-06T15:05:00.337Z,98692.34
2023-05-06T15:07:28.701Z,98694.16
2023-05-06T15:09:55.466Z,98700.25
2023-05-06T15:12:22.513Z,98696.84
2023-05-06T15:14:49.261Z,98701.94
2023-05-06T15:17:16.305Z,98699.22
2023-05-06T15:19:43.160Z,98703.50
2023-05-06T15:22:10.247Z,98697.28
2023-05-06T15:24:37.081Z,98693.34
2023-05-06T15:27:04.132Z,98694.53
2023-05-06T15:29:31.131Z,98697.09
2023-05-06T15:31:58.342Z,98692.97
2023-05-06T15:34:25.242Z,98697.41
2023-05-06T15:36:53.075Z,98698.25
2023-05-06T15:39:19.987Z,98703.38
2023-05-06T15:41:47.306Z,98694.81
2023-05-06T15:44:16.303Z,98693.78
2023-05-06T15:46:43.775Z,98695.66
2023-05-06T15:49:33.663Z,98698.06
2023-05-06T15:52:00.617Z,98700.28
2023-05-06T15:54:28.144Z,98700.09
2023-05-06T15:56:56.368Z,98699.94
2023-05-06T15:59:23.350Z,98705.22
2023-05-06T16:02:25.655Z,98699.44
2023-05-06T16:04:37.554Z,98704.72
2023-05-06T16:07:04.861Z,98701.81
2023-05-06T16:09:31.577Z,98703.19
2023-05-06T16:11:58.724Z,98696.22
2023-05-06T16:14:25.471Z,98703.19
2023-05-06T16:16:52.658Z,98715.38
2023-05-06T16:19:19.504Z,98717.03
2023-05-06T16:21:46.663Z,98716.38
2023-05-06T16:24:13.534Z,98726.47
2023-05-06T16:26:41.367Z,98728.34
2023-05-06T16:29:08.218Z,98722.72
2023-05-06T16:31:36.952Z,98731.97
2023-05-06T16:34:03.814Z,98738.66
2023-05-06T16:36:31.530Z,98735.91
2023-05-06T16:38:58.321Z,98737.31
2023-05-06T16:41:25.494Z,98744.16
2023-05-06T16:43:52.311Z,98745.38
2023-05-06T16:46:20.161Z,98747.28
2023-05-06T16:48:48.394Z,98747.94
2023-05-06T16:51:16.469Z,98751.88
2023-05-06T16:53:43.406Z,98759.59
2023-05-06T16:56:10.949Z,98754.13
2023-05-06T16:58:37.808Z,98750.72
2023-05-06T17:01:07.980Z,98752.09
2023-05-06T17:03:37.840Z,98754.28
2023-05-06T17:06:05.309Z,98755.69
2023-05-06T17:08:36.039Z,98763.56
2023-05-06T17:11:07.223Z,98760.84
2023-05-06T17:13:34.629Z,98749.06
2023-05-06T17:16:01.796Z,98738.13
2023-05-06T17:18:28.557Z,98739.00
2023-05-06T17:20:57.354Z,98742.94
2023-05-06T17:23:24.569Z,98739.00
2023-05-06T17:25:51.664Z,98747.38
2023-05-06T17:28:19.064Z,98739.19
2023-05-06T17:30:46.805Z,98744.13
2023-05-06T17:33:13.705Z,98747.22
2023-05-06T17:35:40.836Z,98747.91
2023-05-06T17:38:07.973Z,98742.81
2023-05-06T17:40:35.076Z,98750.47
2023-05-06T17:43:02.020Z,98747.91
2023-05-06T17:45:29.259Z,98745.50
2023-05-06T17:47:56.493Z,98745.84
2023-05-06T17:50:23.833Z,98750.13
2023-05-06T17:52:52.909Z,98750.28
2023-05-06T17:55:23.900Z,98753.03
2023-05-06T17:57:52.573Z,98755.75
2023-05-06T18:00:19.946Z,98752.50
2023-05-06T18:02:47.040Z,98759.16
2023-05-06T18:05:14.407Z,98761.03
2023-05-06T18:07:41.759Z,98763.75
2023-05-06T18:10:09.387Z,98773.09
2023-05-06T18:12:36.352Z,98769.34
2023-05-06T18:15:03.654Z,98782.50
2023-05-06T18:17:31.676Z,98778.03
2023-05-06T18:19:58.845Z,98775.13
2023-05-06T18:22:25.704Z,98788.09
2023-05-06T18:24:55.325Z,98785.34
2023-05-06T18:27:22.684Z,98790.78
2023-05-06T18:29:49.762Z,98805.28
2023-05-06T18:32:17.469Z,98804.75
2023-05-06T18:34:44.548Z,98806.66
2023-05-06T18:37:11.436Z,98806.44
2023-05-06T18:39:42.143Z,98805.94
2023-05-06T18:42:09.685Z,98803.50
2023-05-06T18:44:36.980Z,98812.00
2023-05-06T18:47:03.809Z,98815.22
2023-05-06T18:49:31.380Z,98817.22
2023-05-06T18:51:59.454Z,98818.75
2023-05-06T18:54:27.104Z,98816.19
2023-05-06T18:56:54.907Z,98813.81
2023-05-06T18:59:22.307Z,98822.47
2023-05-06T19:01:49.175Z,98822.09
2023-05-06T19:04:16.379Z,98829.44
2023-05-06T19:06:43.260Z,98824.25
2023-05-06T19:09:11.335Z,98830.25
2023-05-06T19:11:38.387Z,98834.31
2023-05-06T19:14:09.943Z,98829.66
2023-05-06T19:16:38.038Z,98827.59
2023-05-06T19:19:08.321Z,98832.69
2023-05-06T19:21:38.796Z,98836.47
2023-05-06T19:24:06.416Z,98834.75
2023-05-06T19:26:33.276Z,98834.06
2023-05-06T19:29:00.457Z,98841.69
2023-05-06T19:31:27.327Z,98838.59
2023-05-06T19:33:54.505Z,98841.63
2023-05-06T19:36:21.429Z,98836.34
2023-05-06T19:38:48.647Z,98833.94
2023-05-06T19:41:15.475Z,98836.97
2023-05-06T19:43:44.280Z,98842.94
2023-05-06T19:46:11.717Z,98835.06
2023-05-06T19:48:41.733Z,98843.91
2023-05-06T19:51:10.035Z,98848.31
2023-05-06T19:53:37.299Z,98850.06
2023-05-06T19:56:33.678Z,98851.63
2023-05-06T19:59:01.442Z,98867.66
2023-05-06T20:01:28.642Z,98866.81
2023-05-06T20:03:56.455Z,98863.84
2023-05-06T20:06:24.787Z,98872.88
2023-05-06T20:08:51.952Z,98875.28
2023-05-06T20:11:18.838Z,98868.84
2023-05-06T20:13:45.973Z,98871.31
2023-05-06T20:16:12.856Z,98872.41
2023-05-06T20:18:40.661Z,98879.53
2023-05-06T20:21:08.151Z,98872.03
2023-05-06T20:23:35.250Z,98879.50
2023-05-06T20:26:02.632Z,98876.59
2023-05-06T20:28:31.473Z,98876.03
2023-05-06T20:30:59.924Z,98873.81
2023-05-06T20:33:27.149Z,98881.41
2023-05-06T20:35:53.972Z,98874.41
2023-05-06T20:38:21.551Z,98875.72
2023-05-06T20:40:48.409Z,98878.13
2023-05-06T20:43:15.792Z,98873.19
2023-05-06T20:45:42.667Z,98880.31
2023-05-06T20:48:09.832Z,98882.03
2023-05-06T20:50:37.743Z,98888.25
2023-05-06T20:53:05.443Z,98885.81
2023-05-06T20:55:34.639Z,98887.69
2023-05-06T20:58:01.737Z,98897.09
2023-05-06T21:00:28.645Z,98896.59
2023-05-06T21:02:56.201Z,98889.78
2023-05-06T21:05:23.303Z,98897.78
2023-05-06T21:07:50.554Z,98893.66
2023-05-06T21:10:17.441Z,98889.81
2023-05-06T21:12:48.453Z,98888.69
2023-05-06T21:15:15.383Z,98893.66
2023-05-06T21:17:43.072Z,98897.00
2023-05-06T21:20:10.578Z,98894.72
2023-05-06T21:22:37.900Z,98896.59
2023-05-06T21:25:05.403Z,98898.44
2023-05-06T21:27:32.557Z,98893.56
2023-05-06T21:29:59.336Z,98902.88
2023-05-06T21:32:26.435Z,98906.19
2023-05-06T21:34:53.272Z,98912.09
2023-05-06T21:37:20.450Z,98919.78
2023-05-06T21:39:47.322Z,98916.22
2023-05-06T21:42:14.422Z,98908.66
2023-05-06T21:44:41.228Z,98908.50
2023-05-06T21:47:08.543Z,98905.34
2023-05-06T21:49:35.311Z,98909.69
2023-05-06T21:52:02.296Z,98908.22
2023-05-06T21:54:31.542Z,98910.09
2023-05-06T21:56:58.635Z,98907.97
2023-05-06T21:59:25.392Z,98911.38
2023-05-06T22:01:52.438Z,98909.13
2023-05-06T22:04:20.907Z,98908.13
2023-05-06T22:06:48.010Z,98908.13
2023-05-06T22:09:14.750Z,98903.22
2023-05-06T22:11:41.810Z,98902.41
2023-05-06T22:14:09.467Z,98906.28
2023-05-06T22:16:38.171Z,98909.97
2023-05-06T22:19:06.270Z,98914.59
2023-05-06T22:21:34.576Z,98910.03
2023-05-06T22:24:01.408Z,98909.31
2023-05-06T22:26:28.723Z,98908.31
2023-05-06T22:28:56.272Z,98910.47
2023-05-06T22:31:24.675Z,98900.59
2023-05-06T22:33:57.856Z,98901.91
2023-05-06T22:36:29.290Z,98904.06
2023-05-06T22:38:56.349Z,98917.34
2023-05-06T22:41:23.423Z,98911.38
2023-05-06T22:43:50.124Z,98913.22
2023-05-06T22:46:17.221Z,98902.38
2023-05-06T22:48:47.124Z,98906.91
2023-05-06T22:51:15.787Z,98907.78
2023-05-06T22:53:42.612Z,98910.41
2023-05-06T22:56:09.658Z,98922.41
2023-05-06T22:58:36.564Z,98920.25
2023-05-06T23:01:03.711Z,98925.53
2023-05-06T23:03:30.491Z,98919.97
2023-05-06T23:05:57.577Z,98925.88
2023-05-06T23:08:24.313Z,98922.97
2023-05-06T23:10:51.336Z,98922.72
2023-05-06T23:13:18.089Z,98927.28
2023-05-06T23:15:45.155Z,98920.16
2023-05-06T23:18:11.855Z,98927.72
2023-05-06T23:20:38.941Z,98928.47
2023-05-06T23:23:06.825Z,98932.72
2023-05-06T23:25:33.895Z,98931.59
2023-05-06T23:28:00.604Z,98936.19
2023-05-06T23:30:27.657Z,98935.59
2023-05-06T23:32:54.387Z,98937.03
2023-05-06T23:35:21.452Z,98928.47
2023-05-06T23:37:48.202Z,98940.91
2023-05-06T23:40:15.329Z,98934.75
2023-05-06T23:42:42.051Z,98932.16
2023-05-06T23:45:09.818Z,98928.91
2023-05-06T23:47:36.713Z,98928.91
2023-05-06T23:50:03.959Z,98918.63
2023-05-06T23:52:30.772Z,98928.47
2023-05-06T23:54:57.797Z,98925.91
2023-05-06T23:57:24.495Z,98928.19
2023-05-06T23:59:51.601Z,98919.91
